Time;durP1;ratioP1;P1;durP2;ratioP2;P2;SDS_P1;SDS_P2;PMS_P1;PMS_P2;Temp;Humidity;BMP_temperature;BMP_pressure;BME280_temperature;BME280_humidity;BME280_pressure;Samples;Min_cycle;Max_cycle;Signal;HPM_P1;HPM_P2
2023/02/18 00:01:55;;;;;;;12.35;9.20;;;;;;;0.56;100.00;95499.56;5074886;28;20261;-74
2023/02/18 00:04:21;;;;;;;16.83;9.40;;;;;;;0.52;100.00;95508.31;5076464;28;20049;-75
2023/02/18 00:06:46;;;;;;;19.77;11.20;;;;;;;0.59;100.00;95503.66;5075901;28;20047;-74
2023/02/18 00:09:11;;;;;;;43.50;20.40;;;;;;;0.49;100.00;95494.03;5076315;28;20031;-74
2023/02/18 00:11:37;;;;;;;37.08;18.77;;;;;;;0.53;100.00;95497.22;5074653;28;20177;-75
2023/02/18 00:14:05;;;;;;;30.88;14.27;;;;;;;0.46;100.00;95495.97;5076020;28;20032;-75
2023/02/18 00:16:31;;;;;;;31.27;16.05;;;;;;;0.47;100.00;95490.78;5051093;28;20406;-74
2023/02/18 00:18:58;;;;;;;36.67;20.20;;;;;;;0.45;100.00;95490.03;5068651;28;20633;-73
2023/02/18 00:21:24;;;;;;;40.92;21.65;;;;;;;0.40;100.00;95488.72;5058612;28;20028;-75
2023/02/18 00:23:50;;;;;;;41.40;22.63;;;;;;;0.32;100.00;95475.66;5074506;28;20032;-75
2023/02/18 00:26:16;;;;;;;36.13;21.23;;;;;;;0.42;100.00;95476.69;5075742;28;20040;-74
2023/02/18 00:28:42;;;;;;;31.50;15.77;;;;;;;0.39;100.00;95462.41;5074252;28;20473;-74
2023/02/18 00:31:10;;;;;;;21.95;12.32;;;;;;;0.42;100.00;95463.94;5058798;28;20047;-75
2023/02/18 00:33:36;;;;;;;17.80;10.38;;;;;;;0.09;100.00;95459.25;5078762;28;20157;-75
2023/02/18 00:36:07;;;;;;;15.50;10.15;;;;;;;0.27;100.00;95460.66;5085333;28;20330;-74
2023/02/18 00:38:33;;;;;;;13.65;10.43;;;;;;;0.23;100.00;95464.28;5075793;28;20034;-74
2023/02/18 00:40:59;;;;;;;13.35;9.60;;;;;;;0.19;100.00;95450.16;5074376;28;20028;-74
2023/02/18 00:43:25;;;;;;;13.75;10.05;;;;;;;0.21;100.00;95444.94;5044918;28;20024;-74
2023/02/18 00:45:51;;;;;;;20.38;10.80;;;;;;;0.19;100.00;95439.13;5053492;28;20492;-75
2023/02/18 00:48:16;;;;;;;15.55;9.77;;;;;;;0.24;100.00;95437.94;5069031;28;20060;-74
2023/02/18 00:50:41;;;;;;;24.70;11.55;;;;;;;0.20;100.00;95448.38;5074056;28;20323;-74
2023/02/18 00:53:07;;;;;;;17.25;11.23;;;;;;;0.24;100.00;95429.47;5075533;28;20059;-74
2023/02/18 00:55:37;;;;;;;14.80;9.63;;;;;;;0.14;100.00;95447.06;5074787;28;20089;-74
2023/02/18 00:58:02;;;;;;;14.20;10.27;;;;;;;0.12;100.00;95438.69;5058230;28;20024;-75
2023/02/18 01:00:28;;;;;;;10.55;8.18;;;;;;;0.28;100.00;95438.56;5079449;28;20280;-74
2023/02/18 01:02:54;;;;;;;12.57;8.90;;;;;;;0.36;100.00;95441.41;5070792;28;20417;-74
2023/02/18 01:05:20;;;;;;;11.60;7.85;;;;;;;0.22;100.00;95449.13;5042856;28;20173;-74
2023/02/18 01:07:45;;;;;;;18.27;10.85;;;;;;;0.23;100.00;95445.66;5078780;28;20020;-74
2023/02/18 01:10:11;;;;;;;13.23;10.13;;;;;;;0.02;100.00;95439.38;5080096;28;20032;-73
2023/02/18 01:12:36;;;;;;;14.00;8.82;;;;;;;0.12;100.00;95438.69;5078259;28;20036;-74
2023/02/18 01:15:04;;;;;;;13.75;7.78;;;;;;;-0.03;100.00;95444.72;5078675;28;20142;-74
2023/02/18 01:17:29;;;;;;;12.82;9.30;;;;;;;0.07;100.00;95438.16;5062181;28;20552;-74
2023/02/18 01:19:55;;;;;;;9.98;8.13;;;;;;;0.04;100.00;95440.91;5078205;28;20563;-74
2023/02/18 01:22:20;;;;;;;12.45;9.70;;;;;;;0.02;100.00;95439.38;5079704;28;20035;-74
2023/02/18 01:24:46;;;;;;;13.48;8.77;;;;;;;0.08;100.00;95444.88;5078739;28;20436;-74
2023/02/18 01:27:11;;;;;;;16.40;10.00;;;;;;;0.00;100.00;95439.47;5079342;28;20040;-74
2023/02/18 01:29:36;;;;;;;19.30;10.05;;;;;;;0.08;100.00;95437.25;5077365;28;20532;-74
2023/02/18 01:32:02;;;;;;;15.68;9.75;;;;;;;0.09;100.00;95430.44;5079289;28;20493;-74
2023/02/18 01:34:27;;;;;;;16.33;9.85;;;;;;;0.19;100.00;95428.94;5091037;28;20343;-74
2023/02/18 01:36:53;;;;;;;14.80;8.90;;;;;;;0.19;100.00;95429.78;5080425;28;20047;-74
2023/02/18 01:39:18;;;;;;;17.80;9.77;;;;;;;0.10;100.00;95429.53;5079471;28;20024;-74
2023/02/18 01:41:43;;;;;;;14.75;9.32;;;;;;;0.00;100.00;95435.19;5060093;28;20558;-74
2023/02/18 01:44:14;;;;;;;15.57;8.70;;;;;;;-0.33;100.00;95431.34;5080596;28;20489;-74
2023/02/18 01:46:39;;;;;;;23.17;12.35;;;;;;;-0.22;100.00;95428.97;5078229;28;20073;-74
2023/02/18 01:49:05;;;;;;;17.17;8.93;;;;;;;-0.13;100.00;95436.06;5079142;28;20020;-74
2023/02/18 01:51:35;;;;;;;15.00;9.40;;;;;;;-0.19;100.00;95433.84;5060618;28;20469;-74
2023/02/18 01:54:14;;;;;;;17.27;10.65;;;;;;;-0.04;100.00;95443.13;5078039;28;20028;-74
2023/02/18 01:56:44;;;;;;;15.75;9.57;;;;;;;-0.06;100.00;95439.81;5066665;28;20083;-74
2023/02/18 01:59:15;;;;;;;11.30;8.30;;;;;;;-0.24;100.00;95438.41;5075235;28;20036;-74
2023/02/18 02:01:42;;;;;;;10.90;7.65;;;;;;;0.02;100.00;95444.44;5067547;28;20193;-74
2023/02/18 02:04:08;;;;;;;24.55;8.48;;;;;;;-0.07;100.00;95443.31;5056523;28;20067;-74
2023/02/18 02:06:33;;;;;;;16.77;9.88;;;;;;;-0.13;100.00;95449.56;5057977;28;20117;-74
2023/02/18 02:09:01;;;;;;;16.77;8.95;;;;;;;-0.03;100.00;95445.53;5073280;28;20484;-74
2023/02/18 02:11:47;;;;;;;12.88;8.68;;;;;;;0.06;100.00;95443.34;5076186;28;20064;-74
2023/02/18 02:14:24;;;;;;;14.50;8.77;;;;;;;0.07;100.00;95439.88;5080148;28;20036;-74
2023/02/18 02:16:55;;;;;;;13.57;8.48;;;;;;;0.02;100.00;95442.72;5076419;28;20541;-74
2023/02/18 02:19:42;;;;;;;12.25;8.05;;;;;;;-0.14;100.00;95442.03;5078557;28;20067;-74
2023/02/18 02:22:25;;;;;;;11.80;8.02;;;;;;;-0.15;100.00;95443.75;5079364;28;20046;-74
2023/02/18 02:24:56;;;;;;;13.68;9.57;;;;;;;-0.28;100.00;95449.69;5078107;28;20024;-74
2023/02/18 02:27:25;;;;;;;13.40;8.38;;;;;;;-0.53;100.00;95455.44;5080249;28;20036;-74
2023/02/18 02:30:28;;;;;;;11.10;8.68;;;;;;;-0.74;100.00;95451.66;5075999;28;20606;-74
2023/02/18 02:33:10;;;;;;;12.02;8.13;;;;;;;-0.52;100.00;95446.91;5078548;28;20032;-74
2023/02/18 02:36:17;;;;;;;15.80;13.40;;;;;;;-0.30;100.00;95444.72;5041035;28;20052;-74
2023/02/18 02:39:04;;;;;;;12.23;9.77;;;;;;;-0.37;100.00;95445.97;5044836;28;20039;-74
2023/02/18 02:41:36;;;;;;;12.45;9.50;;;;;;;-0.21;100.00;95438.22;5077247;28;20066;-74
2023/02/18 02:44:28;;;;;;;11.98;8.25;;;;;;;-0.26;100.00;95442.81;5079655;28;20028;-74
2023/02/18 02:47:00;;;;;;;13.45;11.23;;;;;;;-0.78;100.00;95445.91;5051666;28;20504;-74
2023/02/18 02:50:08;;;;;;;10.48;9.32;;;;;;;-0.87;100.00;95438.84;5058048;28;20024;-73
2023/02/18 02:52:39;;;;;;;11.85;8.05;;;;;;;-0.43;100.00;95437.91;5039021;28;20035;-74
2023/02/18 02:55:08;;;;;;;10.07;8.02;;;;;;;0.59;100.00;95438.22;5047893;28;20043;-74
2023/02/18 02:57:33;;;;;;;10.18;8.00;;;;;;;0.21;100.00;95439.84;5060281;28;20472;-74
2023/02/18 03:00:01;;;;;;;12.60;9.02;;;;;;;-0.13;100.00;95439.38;5064171;28;20146;-74
2023/02/18 03:02:41;;;;;;;15.57;10.15;;;;;;;-0.18;100.00;95445.69;5075090;28;20466;-74
2023/02/18 03:05:18;;;;;;;19.23;12.68;;;;;;;-0.22;100.00;95439.97;5077894;28;20570;-73
2023/02/18 03:07:58;;;;;;;15.20;11.07;;;;;;;-0.24;100.00;95444.34;5075893;28;20027;-74
2023/02/18 03:10:47;;;;;;;17.48;10.70;;;;;;;-0.30;100.00;95442.16;5078929;28;20028;-74
2023/02/18 03:13:21;;;;;;;14.63;9.60;;;;;;;-0.17;100.00;95442.22;5043520;28;20494;-74
2023/02/18 03:16:05;;;;;;;11.80;9.43;;;;;;;-0.21;100.00;95433.97;5073457;28;20107;-74
2023/02/18 03:18:40;;;;;;;11.27;8.48;;;;;;;-0.24;100.00;95435.88;5067413;28;20027;-74
2023/02/18 03:21:20;;;;;;;15.25;9.23;;;;;;;-0.33;100.00;95441.53;5072315;28;20120;-74
2023/02/18 03:23:52;;;;;;;33.33;16.60;;;;;;;-0.28;100.00;95444.59;5077298;28;20587;-74
2023/02/18 03:26:18;;;;;;;23.42;12.77;;;;;;;-0.29;100.00;95443.00;5055051;28;20565;-74
2023/02/18 03:28:44;;;;;;;14.40;10.13;;;;;;;-0.46;100.00;95453.34;5066458;28;20067;-74
2023/02/18 03:31:13;;;;;;;21.10;13.25;;;;;;;-0.37;100.00;95460.44;5059314;28;20441;-74
2023/02/18 03:33:43;;;;;;;30.58;14.75;;;;;;;-0.38;100.00;95459.59;5063267;28;20034;-74
2023/02/18 03:36:09;;;;;;;36.85;16.17;;;;;;;-0.45;100.00;95470.25;5065364;28;20045;-74
2023/02/18 03:38:53;;;;;;;44.38;18.17;;;;;;;-0.42;100.00;95472.63;5072139;28;20027;-74
2023/02/18 03:41:19;;;;;;;74.93;27.63;;;;;;;-0.38;100.00;95471.50;5077413;28;20031;-74
2023/02/18 03:43:51;;;;;;;59.13;23.52;;;;;;;-0.23;100.00;95465.50;5075432;28;20015;-74
2023/02/18 03:46:17;;;;;;;36.88;16.33;;;;;;;-0.29;100.00;95465.88;5048645;28;20447;-74
2023/02/18 03:48:43;;;;;;;21.38;11.18;;;;;;;-0.30;100.00;95466.78;5072783;28;20332;-74
2023/02/18 03:51:08;;;;;;;22.38;10.40;;;;;;;-0.15;100.00;95471.75;5074927;28;20039;-74
2023/02/18 03:53:33;;;;;;;15.25;9.30;;;;;;;-0.04;100.00;95476.19;5078191;28;20020;-73
2023/02/18 03:55:59;;;;;;;15.18;9.48;;;;;;;-0.05;100.00;95485.56;5074216;28;20051;-74
2023/02/18 03:58:25;;;;;;;19.95;11.52;;;;;;;0.00;100.00;95486.06;5078498;28;20024;-74
2023/02/18 04:00:51;;;;;;;21.75;12.00;;;;;;;-0.05;100.00;95490.66;5075845;28;20053;-74
2023/02/18 04:03:16;;;;;;;20.67;13.55;;;;;;;-0.25;100.00;95495.28;5076432;28;20120;-73
2023/02/18 04:05:42;;;;;;;12.63;9.35;;;;;;;-0.15;100.00;95493.84;5075303;28;20031;-74
2023/02/18 04:08:07;;;;;;;13.48;8.63;;;;;;;-0.20;100.00;95488.22;5075820;28;20352;-74
2023/02/18 04:10:32;;;;;;;13.57;8.93;;;;;;;-0.17;100.00;95477.84;5092955;28;20118;-74
2023/02/18 04:12:58;;;;;;;15.75;9.32;;;;;;;-0.05;100.00;95479.66;5075806;28;20028;-73
2023/02/18 04:15:24;;;;;;;12.55;8.43;;;;;;;0.02;100.00;95475.81;5076767;28;20497;-74
2023/02/18 04:17:49;;;;;;;13.55;8.93;;;;;;;0.04;100.00;95470.63;5074408;28;20031;-74
2023/02/18 04:20:15;;;;;;;16.63;8.30;;;;;;;0.36;100.00;95461.78;5076046;28;20342;-73
2023/02/18 04:22:41;;;;;;;17.35;8.75;;;;;;;0.24;100.00;95460.84;5074291;28;20036;-74
2023/02/18 04:25:07;;;;;;;13.60;8.35;;;;;;;0.31;100.00;95457.00;5077445;28;20030;-73
2023/02/18 04:27:32;;;;;;;16.80;9.15;;;;;;;0.27;100.00;95465.75;5075510;28;20035;-74
2023/02/18 04:29:58;;;;;;;13.95;8.52;;;;;;;0.34;100.00;95464.44;5057896;28;20795;-74
2023/02/18 04:32:23;;;;;;;11.93;8.75;;;;;;;0.58;100.00;95462.06;5075822;28;20036;-74
2023/02/18 04:34:49;;;;;;;13.63;8.20;;;;;;;0.71;100.00;95462.91;5070926;28;20114;-73
2023/02/18 04:37:14;;;;;;;13.25;8.95;;;;;;;0.51;100.00;95461.63;5075766;28;20097;-74
2023/02/18 04:39:39;;;;;;;12.15;8.55;;;;;;;0.67;100.00;95458.13;5074160;28;20070;-74
2023/02/18 04:42:09;;;;;;;13.43;8.88;;;;;;;0.79;100.00;95460.69;5075987;28;20173;-73
2023/02/18 04:44:35;;;;;;;19.00;8.57;;;;;;;0.81;100.00;95453.75;5075132;28;20235;-73
2023/02/18 04:47:02;;;;;;;16.75;10.13;;;;;;;0.79;100.00;95455.59;5060540;28;20476;-74
2023/02/18 04:49:27;;;;;;;16.55;9.00;;;;;;;0.60;100.00;95464.53;5077226;28;20032;-74
2023/02/18 04:51:52;;;;;;;15.20;8.98;;;;;;;0.17;100.00;95471.50;5073814;28;20028;-74
2023/02/18 04:54:18;;;;;;;12.23;8.63;;;;;;;-0.05;100.00;95465.19;5075786;28;20475;-74
2023/02/18 04:56:43;;;;;;;12.60;9.15;;;;;;;-0.08;100.00;95478.09;5074199;28;20025;-73
2023/02/18 04:59:10;;;;;;;15.35;9.45;;;;;;;-0.07;100.00;95481.47;5077074;28;20034;-74
2023/02/18 05:01:35;;;;;;;14.68;9.27;;;;;;;-0.16;100.00;95466.78;5074400;28;20121;-74
2023/02/18 05:04:01;;;;;;;17.20;10.27;;;;;;;0.15;100.00;95463.97;5075086;28;20032;-74
2023/02/18 05:06:26;;;;;;;13.07;8.60;;;;;;;0.45;100.00;95466.31;5074882;28;20093;-74
2023/02/18 05:08:52;;;;;;;12.68;9.30;;;;;;;0.50;100.00;95459.19;5074077;28;20040;-74
2023/02/18 05:11:17;;;;;;;14.07;9.10;;;;;;;-0.75;100.00;95467.78;5052168;28;20029;-74
2023/02/18 05:13:42;;;;;;;13.82;8.95;;;;;;;-0.43;100.00;95470.97;5065696;28;20025;-74
2023/02/18 05:16:08;;;;;;;13.27;9.75;;;;;;;0.06;100.00;95469.63;5075464;28;20048;-73
2023/02/18 05:18:33;;;;;;;13.57;10.00;;;;;;;0.08;100.00;95472.06;5075567;28;20020;-74
2023/02/18 05:20:59;;;;;;;14.68;10.05;;;;;;;-0.30;100.00;95480.31;5075245;28;20032;-73
2023/02/18 05:23:24;;;;;;;15.32;9.80;;;;;;;-0.32;100.00;95489.75;5057879;28;20016;-74
2023/02/18 05:25:50;;;;;;;16.45;9.98;;;;;;;0.01;100.00;95476.72;5074303;28;20307;-73
2023/02/18 05:28:16;;;;;;;12.68;9.15;;;;;;;0.16;100.00;95468.13;5076606;28;20028;-73
2023/02/18 05:30:41;;;;;;;18.40;9.65;;;;;;;0.41;100.00;95482.72;5057008;28;20106;-74
2023/02/18 05:33:06;;;;;;;16.52;11.98;;;;;;;0.53;100.00;95471.75;5071591;28;20028;-74
2023/02/18 05:35:32;;;;;;;21.00;15.13;;;;;;;0.68;100.00;95472.47;5042354;28;20123;-74
2023/02/18 05:37:57;;;;;;;18.38;12.32;;;;;;;1.00;100.00;95466.94;5075752;28;20020;-73
2023/02/18 05:40:23;;;;;;;16.42;11.32;;;;;;;0.84;100.00;95458.66;5074775;28;20024;-73
2023/02/18 05:42:48;;;;;;;14.43;10.63;;;;;;;1.03;100.00;95471.00;5055168;28;20421;-73
2023/02/18 05:45:13;;;;;;;13.55;9.20;;;;;;;1.19;100.00;95463.97;5072099;28;20492;-73
2023/02/18 05:47:39;;;;;;;15.00;9.65;;;;;;;1.49;100.00;95459.41;5061131;28;20020;-74
2023/02/18 05:50:06;;;;;;;15.95;9.68;;;;;;;1.26;100.00;95467.78;5078637;28;20028;-73
2023/02/18 05:52:31;;;;;;;14.57;10.05;;;;;;;0.58;100.00;95472.25;5078614;28;20024;-74
2023/02/18 05:54:57;;;;;;;13.93;10.80;;;;;;;0.91;100.00;95479.47;5079273;28;20094;-74
2023/02/18 05:57:24;;;;;;;18.27;11.85;;;;;;;1.33;100.00;95480.94;5056394;28;20024;-74
2023/02/18 05:59:49;;;;;;;26.52;16.95;;;;;;;1.68;100.00;95473.47;5068835;28;20032;-74
2023/02/18 06:02:15;;;;;;;26.05;13.13;;;;;;;2.09;100.00;95471.44;5078742;28;20039;-74
2023/02/18 06:04:40;;;;;;;16.85;12.02;;;;;;;2.02;100.00;95476.13;5057693;28;20115;-74
2023/02/18 06:07:06;;;;;;;27.25;17.90;;;;;;;2.17;100.00;95471.72;5071893;28;20043;-74
2023/02/18 06:09:31;;;;;;;60.30;32.80;;;;;;;2.30;100.00;95469.94;5056580;28;20020;-74
2023/02/18 06:11:56;;;;;;;31.63;19.85;;;;;;;2.61;100.00;95468.56;5071693;28;20087;-74
2023/02/18 06:14:22;;;;;;;44.75;26.08;;;;;;;2.74;100.00;95461.66;5076181;28;20027;-74
2023/02/18 06:16:47;;;;;;;26.48;15.20;;;;;;;3.09;100.00;95462.44;5078621;28;20021;-74
2023/02/18 06:19:13;;;;;;;18.17;10.88;;;;;;;3.10;98.65;95435.13;5076647;28;20074;-74
2023/02/18 06:21:38;;;;;;;17.40;13.23;;;;;;;3.24;98.84;95447.72;5080134;28;20207;-74
2023/02/18 06:24:04;;;;;;;16.90;9.57;;;;;;;3.43;97.34;95436.94;5077359;28;20482;-74
2023/02/18 06:26:29;;;;;;;15.95;10.00;;;;;;;3.56;96.92;95445.31;5077052;28;20031;-75
2023/02/18 06:28:55;;;;;;;14.30;9.82;;;;;;;3.85;95.42;95454.16;5057746;28;20074;-75
2023/02/18 06:31:20;;;;;;;13.73;8.85;;;;;;;4.18;93.02;95461.78;5075363;28;20031;-75
2023/02/18 06:33:46;;;;;;;14.73;8.70;;;;;;;4.38;91.91;95469.66;5067054;28;20038;-75
2023/02/18 06:36:12;;;;;;;16.73;9.10;;;;;;;4.78;89.31;95465.59;5086014;28;20055;-75
2023/02/18 06:38:40;;;;;;;15.68;9.07;;;;;;;5.30;86.62;95470.66;5077949;28;20032;-75
2023/02/18 06:41:05;;;;;;;14.55;9.00;;;;;;;5.58;84.43;95453.81;5076713;28;20593;-76
2023/02/18 06:43:31;;;;;;;20.10;9.90;;;;;;;6.15;82.19;95462.69;5077542;28;20020;-76
2023/02/18 06:45:56;;;;;;;17.88;10.73;;;;;;;7.99;70.86;95457.28;5057501;28;20032;-76
2023/02/18 06:48:22;;;;;;;17.90;12.68;;;;;;;6.59;74.00;95457.09;5071864;28;20452;-76
2023/02/18 06:50:48;;;;;;;18.70;13.68;;;;;;;5.81;80.30;95462.94;5057409;28;20024;-76
2023/02/18 06:53:15;;;;;;;16.40;10.88;;;;;;;5.62;82.12;95462.88;5067815;28;20032;-76
2023/02/18 06:55:41;;;;;;;18.95;12.73;;;;;;;5.75;81.58;95445.47;5077705;28;20429;-75
2023/02/18 06:58:08;;;;;;;20.17;10.85;;;;;;;5.84;80.06;95447.28;5076066;28;20024;-76
2023/02/18 07:00:34;;;;;;;13.07;9.35;;;;;;;5.65;82.84;95448.97;5060438;28;20511;-76
2023/02/18 07:03:00;;;;;;;14.20;10.65;;;;;;;5.72;82.68;95444.91;5078446;28;20031;-76
2023/02/18 07:05:25;;;;;;;27.60;16.15;;;;;;;5.91;79.66;95462.22;5056410;28;20090;-75
2023/02/18 07:07:50;;;;;;;34.25;20.45;;;;;;;6.43;77.18;95451.66;5054131;28;20374;-76
2023/02/18 07:10:16;;;;;;;19.50;13.80;;;;;;;6.39;75.23;95454.66;5050551;28;20154;-76
2023/02/18 07:12:41;;;;;;;16.95;11.88;;;;;;;7.94;68.23;95439.66;5077655;28;20024;-76
2023/02/18 07:15:07;;;;;;;17.55;14.15;;;;;;;8.72;61.33;95449.44;5077159;28;20024;-77
2023/02/18 07:17:32;;;;;;;14.52;11.75;;;;;;;7.42;65.87;95448.78;5079437;28;20032;-75
2023/02/18 07:19:58;;;;;;;13.73;8.45;;;;;;;7.42;66.06;95448.78;5075708;28;20412;-76
2023/02/18 07:22:23;;;;;;;10.93;8.48;;;;;;;7.48;63.42;95437.91;5077205;28;20437;-75
2023/02/18 07:24:52;;;;;;;10.02;7.97;;;;;;;7.38;63.75;95434.56;5077992;28;20020;-76
2023/02/18 07:27:18;;;;;;;9.63;7.97;;;;;;;7.75;62.71;95434.59;5059412;28;20031;-76
2023/02/18 07:29:43;;;;;;;12.60;7.70;;;;;;;7.55;62.62;95433.81;5077018;28;20458;-76
2023/02/18 07:32:11;;;;;;;13.98;8.65;;;;;;;7.93;63.06;95418.22;5075453;28;20112;-76
2023/02/18 07:34:36;;;;;;;11.95;9.50;;;;;;;8.58;60.07;95425.88;5090239;28;20059;-76
2023/02/18 07:37:03;;;;;;;14.15;8.60;;;;;;;9.88;56.02;95418.94;5076665;28;20079;-76
2023/02/18 07:39:29;;;;;;;12.73;9.00;;;;;;;9.60;55.26;95424.44;5060008;28;20872;-76
2023/02/18 07:41:54;;;;;;;13.27;9.70;;;;;;;10.67;53.42;95418.53;5062797;28;20025;-76
2023/02/18 07:44:19;;;;;;;15.13;9.98;;;;;;;10.61;51.60;95419.19;5076296;28;20046;-77
2023/02/18 07:46:45;;;;;;;14.23;9.57;;;;;;;10.65;52.97;95430.84;5076364;28;20441;-77
2023/02/18 07:49:10;;;;;;;12.32;9.25;;;;;;;10.57;53.14;95425.66;5058899;28;20043;-76
2023/02/18 07:51:37;;;;;;;11.65;9.40;;;;;;;10.90;51.95;95435.09;5059895;28;20536;-77
2023/02/18 07:54:03;;;;;;;23.50;14.82;;;;;;;9.92;56.92;95440.91;5058238;28;20148;-77
2023/02/18 07:56:28;;;;;;;26.83;16.98;;;;;;;8.85;64.20;95452.47;5079184;28;20447;-76
2023/02/18 07:58:53;;;;;;;22.83;16.30;;;;;;;9.87;62.74;95450.94;5076219;28;20719;-77
2023/02/18 08:01:19;;;;;;;20.92;16.33;;;;;;;9.29;65.44;95455.88;5078806;28;20095;-77
2023/02/18 08:03:44;;;;;;;25.38;16.23;;;;;;;8.72;67.83;95457.19;5076659;28;20070;-77
2023/02/18 08:06:21;;;;;;;25.17;16.17;;;;;;;10.16;61.13;95454.97;5057583;28;20031;-77
2023/02/18 08:08:47;;;;;;;21.27;16.02;;;;;;;10.08;59.89;95450.56;5059628;28;20084;-77
2023/02/18 08:11:12;;;;;;;19.75;14.77;;;;;;;9.92;61.10;95453.84;5055615;28;20029;-77
2023/02/18 08:13:37;;;;;;;21.10;15.65;;;;;;;10.36;59.22;95454.56;5058172;28;20024;-77
2023/02/18 08:16:03;;;;;;;18.33;14.23;;;;;;;12.63;53.14;95448.19;5072173;28;20019;-77
2023/02/18 08:18:29;;;;;;;22.90;15.13;;;;;;;14.24;46.90;95446.03;5075770;28;20058;-76
2023/02/18 08:20:54;;;;;;;19.75;15.82;;;;;;;16.91;41.11;95441.59;5074118;28;20491;-76
2023/02/18 08:23:21;;;;;;;20.30;15.35;;;;;;;16.65;40.67;95434.47;5076616;28;20020;-77
2023/02/18 08:25:50;;;;;;;18.33;14.07;;;;;;;16.20;42.40;95429.81;5074710;28;20065;-76
2023/02/18 08:28:17;;;;;;;13.73;11.63;;;;;;;17.51;38.20;95427.56;5051020;28;20683;-76
2023/02/18 08:30:47;;;;;;;14.95;11.25;;;;;;;19.35;34.99;95425.19;5067804;28;20082;-77
2023/02/18 08:33:13;;;;;;;11.10;9.90;;;;;;;16.10;39.14;95424.94;5074226;28;20024;-76
2023/02/18 08:35:39;;;;;;;10.95;9.25;;;;;;;17.44;37.84;95432.00;5088557;28;20161;-76
2023/02/18 08:38:06;;;;;;;12.38;9.60;;;;;;;19.80;34.12;95425.88;5073944;28;20056;-76
2023/02/18 08:40:31;;;;;;;10.90;9.65;;;;;;;18.82;35.01;95422.06;5074806;28;20040;-77
2023/02/18 08:42:57;;;;;;;10.90;9.05;;;;;;;19.19;34.36;95414.38;5062444;28;20611;-77
2023/02/18 08:45:22;;;;;;;13.73;8.88;;;;;;;21.63;31.47;95419.41;5056742;28;20111;-76
2023/02/18 08:47:48;;;;;;;9.77;8.65;;;;;;;23.18;29.73;95411.63;5076552;28;20056;-77
2023/02/18 08:50:13;;;;;;;10.05;9.05;;;;;;;18.69;34.43;95402.94;5073060;28;20542;-77
2023/02/18 08:52:39;;;;;;;9.27;8.48;;;;;;;19.80;33.60;95402.22;5075259;28;20020;-76
2023/02/18 08:55:05;;;;;;;11.48;8.82;;;;;;;17.95;35.00;95416.47;5072868;28;20317;-76
2023/02/18 08:57:30;;;;;;;10.68;9.32;;;;;;;17.55;36.13;95402.63;5074554;28;20024;-77
2023/02/18 08:59:56;;;;;;;10.32;9.13;;;;;;;14.07;42.10;95410.72;5045730;28;20035;-78
2023/02/18 09:02:21;;;;;;;13.98;10.02;;;;;;;14.44;42.93;95424.66;5071399;28;20039;-76
2023/02/18 09:04:47;;;;;;;13.02;10.48;;;;;;;14.80;42.39;95425.47;5076522;28;20103;-78
2023/02/18 09:07:12;;;;;;;14.82;10.23;;;;;;;14.63;43.09;95424.88;5073213;28;20822;-77
2023/02/18 09:09:38;;;;;;;13.18;10.18;;;;;;;13.66;44.48;95432.97;5055045;28;20456;-77
2023/02/18 09:12:03;;;;;;;10.25;9.25;;;;;;;13.24;46.19;95432.69;5065622;28;20038;-77
2023/02/18 09:14:30;;;;;;;11.70;9.85;;;;;;;13.03;44.91;95430.72;5075719;28;20493;-76
2023/02/18 09:16:57;;;;;;;12.18;9.95;;;;;;;12.23;45.82;95429.41;5076695;28;20524;-76
2023/02/18 09:19:23;;;;;;;15.90;10.30;;;;;;;12.74;45.71;95422.81;5076591;28;20020;-77
2023/02/18 09:21:48;;;;;;;14.40;11.40;;;;;;;13.13;44.21;95426.94;5078607;28;20472;-77
2023/02/18 09:24:14;;;;;;;15.57;11.80;;;;;;;14.20;42.27;95433.53;5077912;28;20434;-76
2023/02/18 09:26:39;;;;;;;13.00;11.60;;;;;;;13.17;44.47;95419.59;5079740;28;20085;-77
2023/02/18 09:29:05;;;;;;;14.07;11.13;;;;;;;12.59;45.64;95420.94;5077539;28;20027;-76
2023/02/18 09:31:30;;;;;;;15.88;12.23;;;;;;;17.19;38.41;95415.28;5058664;28;20059;-76
2023/02/18 09:33:58;;;;;;;15.35;11.48;;;;;;;16.59;38.32;95418.75;5074600;28;20280;-76
2023/02/18 09:36:24;;;;;;;15.23;10.27;;;;;;;14.43;41.37;95403.00;5055210;28;20044;-77
2023/02/18 09:38:50;;;;;;;15.82;11.55;;;;;;;13.63;44.07;95408.13;5076218;28;20497;-76
2023/02/18 09:41:37;;;;;;;13.70;11.57;;;;;;;13.49;44.11;95405.47;5077996;28;20156;-77
2023/02/18 09:44:21;;;;;;;16.40;12.10;;;;;;;14.02;42.95;95407.06;5078386;28;20028;-77
2023/02/18 09:46:55;;;;;;;11.90;8.60;;;;;;;15.54;39.45;95392.03;5076109;28;20306;-77
2023/02/18 09:49:25;;;;;;;15.40;11.25;;;;;;;15.81;39.40;95388.59;5079903;28;20474;-77
2023/02/18 09:51:52;;;;;;;15.73;10.85;;;;;;;15.06;41.36;95377.94;5046033;28;20028;-77
2023/02/18 09:54:18;;;;;;;14.98;11.23;;;;;;;17.23;37.42;95383.25;5057145;28;20510;-77
2023/02/18 09:56:44;;;;;;;15.40;11.75;;;;;;;16.72;38.20;95387.41;5053434;28;20054;-76
2023/02/18 09:59:17;;;;;;;21.20;15.30;;;;;;;14.04;42.79;95410.28;5059665;28;20027;-76
2023/02/18 10:01:42;;;;;;;24.02;14.98;;;;;;;15.61;40.32;95392.88;5078321;28;20507;-76
2023/02/18 10:04:29;;;;;;;12.40;11.20;;;;;;;16.39;39.19;95397.72;5076343;28;20016;-77
2023/02/18 10:06:55;;;;;;;15.50;10.45;;;;;;;17.11;38.42;95400.56;5065651;28;20047;-77
2023/02/18 10:09:37;;;;;;;14.20;10.82;;;;;;;17.01;38.45;95396.72;5074845;28;20050;-79
2023/02/18 10:12:19;;;;;;;14.73;10.10;;;;;;;15.03;41.58;95392.19;5076965;28;20439;-77
2023/02/18 10:14:50;;;;;;;11.45;10.32;;;;;;;15.44;41.13;95376.69;5058424;28;20331;-78
2023/02/18 10:17:17;;;;;;;15.18;10.88;;;;;;;15.64;40.42;95368.97;5069488;28;20039;-77
2023/02/18 10:19:45;;;;;;;13.95;10.02;;;;;;;15.62;41.32;95371.81;5077564;28;20059;-77
2023/02/18 10:22:12;;;;;;;15.03;10.13;;;;;;;16.15;40.39;95380.72;5064682;28;20405;-77
2023/02/18 10:24:41;;;;;;;13.95;10.30;;;;;;;17.68;38.20;95381.66;5075010;28;20036;-77
2023/02/18 10:27:08;;;;;;;11.60;10.43;;;;;;;14.58;41.51;95380.31;5077518;28;20038;-77
2023/02/18 10:29:34;;;;;;;18.38;10.85;;;;;;;15.00;42.29;95384.72;5075942;28;20681;-76
2023/02/18 10:32:30;;;;;;;14.20;10.75;;;;;;;15.01;41.86;95381.13;5056501;28;20028;-77
2023/02/18 10:35:06;;;;;;;21.38;13.85;;;;;;;13.78;44.48;95382.09;5089233;28;20026;-76
2023/02/18 10:37:47;;;;;;;18.23;12.02;;;;;;;14.23;44.05;95370.66;5077066;28;20032;-76
2023/02/18 10:40:31;;;;;;;14.00;10.80;;;;;;;14.04;43.96;95372.03;5077094;28;20050;-76
2023/02/18 10:43:08;;;;;;;13.77;10.48;;;;;;;12.94;45.79;95367.56;5078226;28;20484;-79
2023/02/18 10:45:58;;;;;;;13.07;10.27;;;;;;;13.89;43.78;95371.25;5078853;28;20162;-78
2023/02/18 10:48:51;;;;;;;16.27;11.25;;;;;;;13.62;44.65;95367.47;5077365;28;20770;-76
2023/02/18 10:51:21;;;;;;;12.55;9.75;;;;;;;13.74;44.56;95336.59;5065913;28;20425;-77
2023/02/18 10:53:48;;;;;;;11.30;9.73;;;;;;;14.01;44.81;95361.97;5073819;28;20514;-76
2023/02/18 10:56:39;;;;;;;10.02;9.20;;;;;;;13.95;44.57;95356.69;5075387;28;20032;-76
2023/02/18 10:59:13;;;;;;;10.90;8.73;;;;;;;14.05;43.17;95336.38;5078183;28;20512;-76
2023/02/18 11:01:39;;;;;;;12.25;9.60;;;;;;;14.70;42.25;95341.53;5059137;28;20032;-76
2023/02/18 11:04:17;;;;;;;11.15;10.05;;;;;;;15.48;41.72;95348.38;5072913;28;20961;-76
2023/02/18 11:06:45;;;;;;;13.27;9.20;;;;;;;15.29;40.46;95329.78;5067447;28;20563;-77
2023/02/18 11:09:29;;;;;;;16.38;8.77;;;;;;;14.97;40.55;95332.94;5058454;28;20027;-76
2023/02/18 11:12:31;;;;;;;11.93;9.65;;;;;;;15.35;40.09;95330.81;5078038;28;20042;-77
2023/02/18 11:15:20;;;;;;;11.95;8.80;;;;;;;14.03;40.96;95331.34;5064404;28;20037;-77
2023/02/18 11:17:48;;;;;;;11.30;9.30;;;;;;;15.06;40.23;95317.94;5074709;28;20413;-76
2023/02/18 11:20:21;;;;;;;13.27;9.85;;;;;;;15.02;40.35;95322.75;5060138;28;20039;-77
2023/02/18 11:22:47;;;;;;;12.68;9.30;;;;;;;14.44;41.27;95308.19;5074810;28;20035;-77
2023/02/18 11:25:22;;;;;;;10.45;8.45;;;;;;;14.96;40.15;95310.44;5058928;28;20042;-77
2023/02/18 11:27:51;;;;;;;11.48;8.88;;;;;;;15.25;39.57;95299.03;5076051;28;20497;-77
2023/02/18 11:30:16;;;;;;;17.42;12.88;;;;;;;14.74;39.38;95298.41;5074873;28;20028;-77